createdAt,value
2024-04-24T00:02:20.706Z,99579.16
2024-04-24T00:04:50.578Z,99572.72
2024-04-24T00:07:20.616Z,99577.69
2024-04-24T00:09:50.756Z,99571.63
2024-04-24T00:12:20.859Z,99576.81
2024-04-24T00:14:50.750Z,99562.91
2024-04-24T00:17:20.667Z,99550.50
2024-04-24T00:19:50.682Z,99547.16
2024-04-24T00:22:20.527Z,99559.75
2024-04-24T00:24:50.411Z,99570.81
2024-04-24T00:27:20.193Z,99572.88
2024-04-24T00:29:50.021Z,99571.28
2024-04-24T00:32:19.955Z,99567.31
2024-04-24T00:34:49.857Z,99566.94
2024-04-24T00:37:19.742Z,99558.88
2024-04-24T00:39:49.551Z,99561.50
2024-04-24T00:42:23.142Z,99562.34
2024-04-24T00:44:52.984Z,99565.03
2024-04-24T00:47:25.972Z,99564.44
2024-04-24T00:49:55.918Z,99565.84
2024-04-24T00:52:26.444Z,99560.06
2024-04-24T00:54:56.684Z,99573.13
2024-04-24T00:57:26.686Z,99583.66
2024-04-24T00:59:56.554Z,99582.66
2024-04-24T01:02:26.452Z,99592.97
2024-04-24T01:04:56.506Z,99598.13
2024-04-24T01:07:26.449Z,99611.25
2024-04-24T01:09:56.329Z,99613.94
2024-04-24T01:12:26.263Z,99610.78
2024-04-24T01:14:56.503Z,99607.50
2024-04-24T01:17:26.477Z,99610.22
2024-04-24T01:19:56.610Z,99612.06
2024-04-24T01:22:53.887Z,99620.56
2024-04-24T01:25:31.092Z,99607.09
2024-04-24T01:28:03.740Z,99607.09
2024-04-24T01:30:33.776Z,99610.59
2024-04-24T01:33:03.803Z,99595.91
2024-04-24T01:35:33.937Z,99598.13
2024-04-24T01:38:03.845Z,99584.06
2024-04-24T01:40:33.845Z,99577.44
2024-04-24T01:43:03.703Z,99577.38
2024-04-24T01:45:33.510Z,99577.97
2024-04-24T01:48:03.506Z,99567.81
2024-04-24T01:50:33.364Z,99565.97
2024-04-24T01:53:03.314Z,99578.44
2024-04-24T01:55:33.609Z,99580.38
2024-04-24T01:58:06.921Z,99581.84
2024-04-24T02:01:15.895Z,99570.47
2024-04-24T02:09:04.898Z,99571.72
2024-04-24T02:11:36.244Z,99571.47
2024-04-24T02:14:06.488Z,99569.78
2024-04-24T02:16:36.358Z,99552.56
2024-04-24T02:19:11.576Z,99562.09
2024-04-24T02:21:41.318Z,99564.81
2024-04-24T02:24:11.162Z,99578.91
2024-04-24T02:26:40.948Z,99581.38
2024-04-24T02:29:10.779Z,99579.72
2024-04-24T02:31:40.635Z,99583.25
2024-04-24T02:34:10.484Z,99578.91
2024-04-24T02:36:40.289Z,99582.66
2024-04-24T02:39:10.225Z,99584.13
2024-04-24T02:41:39.993Z,99579.31
2024-04-24T02:44:09.913Z,99584.13
2024-04-24T02:46:39.734Z,99585.34
2024-04-24T02:49:10.182Z,99576.69
2024-04-24T02:51:39.986Z,99580.41
2024-04-24T02:54:09.830Z,99584.13
2024-04-24T02:56:39.717Z,99584.53
2024-04-24T02:59:09.631Z,99574.16
2024-04-24T03:01:39.508Z,99570.19
2024-04-24T03:04:09.301Z,99573.75
2024-04-24T03:06:47.048Z,99565.44
2024-04-24T03:09:19.858Z,99569.19
2024-04-24T03:11:49.808Z,99563.19
2024-04-24T03:14:23.160Z,99565.28
2024-04-24T03:16:53.069Z,99568.38
2024-04-24T03:19:23.003Z,99581.63
2024-04-24T03:21:52.880Z,99587.81
2024-04-24T03:24:22.920Z,99591.59
2024-04-24T03:26:52.728Z,99586.63
2024-04-24T03:29:27.227Z,99586.19
2024-04-24T03:31:57.401Z,99583.94
2024-04-24T03:34:27.331Z,99583.94
2024-04-24T03:36:57.221Z,99586.63
2024-04-24T03:39:27.135Z,99581.44
2024-04-24T03:41:56.949Z,99576.88
2024-04-24T03:44:26.888Z,99583.47
2024-04-24T03:46:57.824Z,99584.94
2024-04-24T03:49:27.737Z,99571.94
2024-04-24T03:51:57.863Z,99573.81
2024-04-24T03:54:27.720Z,99568.84
2024-04-24T03:56:58.152Z,99569.69
2024-04-24T03:59:28.173Z,99580.25
2024-04-24T04:01:58.144Z,99588.97
2024-04-24T04:04:28.043Z,99603.03
2024-04-24T04:06:57.916Z,99617.53
2024-04-24T04:09:27.694Z,99605.31
2024-04-24T04:11:57.566Z,99614.63
2024-04-24T04:14:27.391Z,99609.88
2024-04-24T04:16:57.655Z,99611.50
2024-04-24T04:19:27.458Z,99616.91
2024-04-24T04:21:57.311Z,99606.72
2024-04-24T04:24:27.234Z,99612.94
2024-04-24T04:26:57.104Z,99608.59
2024-04-24T04:29:27.050Z,99599.91
2024-04-24T04:31:56.941Z,99610.47
2024-04-24T04:34:29.686Z,99613.16
2024-04-24T04:36:59.522Z,99602.59
2024-04-24T04:39:29.359Z,99605.91
2024-04-24T04:41:59.482Z,99609.00
2024-04-24T04:44:29.480Z,99613.97
2024-04-24T04:46:59.322Z,99607.38
2024-04-24T04:49:29.237Z,99608.19
2024-04-24T04:51:59.064Z,99614.59
2024-04-24T04:54:28.864Z,99623.34
2024-04-24T04:56:58.689Z,99614.41
2024-04-24T04:59:28.739Z,99621.06
2024-04-24T05:01:59.813Z,99632.44
2024-04-24T05:04:29.933Z,99636.34
2024-04-24T05:06:59.762Z,99634.72
2024-04-24T05:09:31.611Z,99627.03
2024-04-24T05:12:01.855Z,99641.34
2024-04-24T05:14:31.791Z,99641.34
2024-04-24T05:17:01.692Z,99631.63
2024-04-24T05:19:31.613Z,99635.75
2024-04-24T05:22:01.456Z,99623.75
2024-04-24T05:24:31.247Z,99618.38
2024-04-24T05:27:19.133Z,99637.41
2024-04-24T05:29:49.637Z,99622.28
2024-04-24T05:32:19.649Z,99623.94
2024-04-24T05:34:49.578Z,99624.16
2024-04-24T05:37:19.484Z,99626.63
2024-04-24T05:39:49.273Z,99623.53
2024-04-24T05:42:19.212Z,99628.91
2024-04-24T05:44:49.058Z,99624.34
2024-04-24T05:47:19.024Z,99620.66
2024-04-24T05:49:48.953Z,99624.34
2024-04-24T05:52:18.934Z,99620.59
2024-04-24T05:54:49.202Z,99618.38
2024-04-24T05:57:22.718Z,99625.81
2024-04-24T05:59:53.946Z,99630.75
2024-04-24T06:02:23.892Z,99620.59
2024-04-24T06:04:54.186Z,99621.66
2024-04-24T06:07:24.062Z,99617.94
2024-04-24T06:09:53.945Z,99620.41
2024-04-24T06:12:23.689Z,99616.50
2024-04-24T06:14:53.522Z,99608.19
2024-04-24T06:17:23.347Z,99612.97
2024-04-24T06:19:53.249Z,99619.59
2024-04-24T06:22:23.318Z,99617.09
2024-04-24T06:24:53.077Z,99612.16
2024-04-24T06:27:22.980Z,99613.38
2024-04-24T06:29:52.899Z,99618.59
2024-04-24T06:32:22.803Z,99618.78
2024-04-24T06:34:52.699Z,99625.00
2024-04-24T06:37:23.296Z,99620.84
2024-04-24T06:39:53.170Z,99619.97
2024-04-24T06:42:23.012Z,99617.56
2024-04-24T06:44:57.409Z,99610.25
2024-04-24T06:47:27.298Z,99612.06
2024-04-24T06:49:57.097Z,99611.66
2024-04-24T06:52:26.953Z,99608.53
2024-04-24T06:54:56.739Z,99600.66
2024-04-24T06:57:26.543Z,99600.06
2024-04-24T06:59:56.384Z,99596.22
2024-04-24T07:02:26.280Z,99601.34
2024-04-24T07:04:56.143Z,99594.47
2024-04-24T07:07:26.110Z,99609.59
2024-04-24T07:09:55.898Z,99619.78
2024-04-24T07:12:25.720Z,99623.75
2024-04-24T07:14:55.492Z,99620.22
2024-04-24T07:17:25.510Z,99623.91
2024-04-24T07:19:55.414Z,99622.38
2024-04-24T07:22:25.266Z,99624.53
2024-04-24T07:24:55.121Z,99618.50
2024-04-24T07:27:24.905Z,99622.88
2024-04-24T07:29:54.688Z,99627.28
2024-04-24T07:32:24.542Z,99634.94
2024-04-24T07:34:54.371Z,99622.94
2024-04-24T07:37:24.353Z,99630.19
2024-04-24T07:39:54.210Z,99643.47
2024-04-24T07:42:24.002Z,99639.16
2024-04-24T07:44:53.991Z,99650.31
2024-04-24T07:47:24.011Z,99645.09
2024-04-24T07:49:53.938Z,99650.91
2024-04-24T07:52:23.711Z,99653.78
2024-04-24T07:54:53.560Z,99653.38
2024-04-24T07:57:23.528Z,99649.84
2024-04-24T07:59:55.974Z,99655.66
2024-04-24T08:02:26.339Z,99659.41
2024-04-24T08:04:56.627Z,99656.53
2024-04-24T08:07:26.429Z,99664.63
2024-04-24T08:09:56.208Z,99655.66
2024-04-24T08:12:26.139Z,99654.84
2024-04-24T08:14:55.967Z,99663.97
2024-04-24T08:17:26.216Z,99661.09
2024-04-24T08:19:56.222Z,99653.22
2024-04-24T08:22:26.355Z,99659.25
2024-04-24T08:24:56.179Z,99656.75
2024-04-24T08:27:26.110Z,99656.53
2024-04-24T08:29:55.918Z,99651.16
2024-04-24T08:32:25.747Z,99652.03
2024-04-24T08:34:55.719Z,99658.22
2024-04-24T08:37:25.590Z,99660.50
2024-04-24T08:39:55.336Z,99651.59
2024-04-24T08:42:25.155Z,99656.78
2024-04-24T08:44:55.776Z,99661.13
2024-04-24T08:47:25.656Z,99662.56
2024-04-24T08:49:56.648Z,99660.69
2024-04-24T08:52:26.485Z,99668.59
2024-04-24T08:55:00.489Z,99671.88
2024-04-24T08:57:31.758Z,99683.88
2024-04-24T09:00:02.579Z,99677.47
2024-04-24T09:02:44.575Z,99679.78
2024-04-24T09:05:14.564Z,99686.00
2024-04-24T09:07:44.693Z,99688.88
2024-04-24T09:10:14.580Z,99691.16
2024-04-24T09:12:44.390Z,99688.47
2024-04-24T09:15:14.164Z,99697.38
2024-04-24T09:17:44.062Z,99691.38
2024-04-24T09:20:14.397Z,99702.53
2024-04-24T09:22:44.218Z,99702.94
2024-04-24T09:25:14.008Z,99701.91
2024-04-24T09:27:43.811Z,99710.44
2024-04-24T09:30:14.735Z,99713.31
2024-04-24T09:32:44.671Z,99721.00
2024-04-24T09:35:14.533Z,99727.41
2024-04-24T09:37:44.372Z,99731.53
2024-04-24T09:40:14.580Z,99728.84
2024-04-24T09:42:44.367Z,99726.56
2024-04-24T09:45:14.219Z,99733.59
2024-04-24T09:47:47.599Z,99737.75
2024-04-24T09:50:17.548Z,99728.84
2024-04-24T09:52:50.486Z,99728.63
2024-04-24T09:55:22.388Z,99738.78
2024-04-24T09:57:52.934Z,99749.13
2024-04-24T10:00:22.830Z,99750.38
2024-04-24T10:02:53.158Z,99752.00
2024-04-24T10:05:33.183Z,99748.94
2024-04-24T10:08:08.443Z,99764.03
2024-04-24T10:10:50.194Z,99760.72
2024-04-24T10:13:21.229Z,99766.91
2024-04-24T10:15:54.545Z,99760.06
2024-04-24T10:18:24.727Z,99771.06
2024-04-24T10:20:55.431Z,99764.84
2024-04-24T10:23:29.933Z,99767.53
2024-04-24T10:26:00.304Z,99777.28
2024-04-24T10:28:30.810Z,99778.28
2024-04-24T10:31:01.558Z,99780.34
2024-04-24T10:33:32.133Z,99791.13
2024-04-24T10:36:02.986Z,99798.53
2024-04-24T10:38:35.077Z,99793.41
2024-04-24T10:41:05.132Z,99798.53
2024-04-24T10:43:36.504Z,99805.38
2024-04-24T10:46:08.645Z,99798.31
2024-04-24T10:49:02.042Z,99802.88
2024-04-24T10:51:36.066Z,99809.28
2024-04-24T10:54:18.111Z,99819.88
2024-04-24T10:56:50.579Z,99813.63
2024-04-24T10:59:20.571Z,99817.13
2024-04-24T11:01:53.937Z,99814.66
2024-04-24T11:04:28.387Z,99821.97
2024-04-24T11:06:58.513Z,99828.63
2024-04-24T11:09:28.319Z,99819.34
2024-04-24T11:12:02.256Z,99825.09
2024-04-24T11:14:42.215Z,99831.50
2024-04-24T11:17:12.177Z,99841.22
2024-04-24T11:19:42.037Z,99844.47
2024-04-24T11:22:11.879Z,99853.84
2024-04-24T11:24:41.857Z,99855.63
2024-04-24T11:27:11.712Z,99857.78
2024-04-24T11:29:41.833Z,99859.78
2024-04-24T11:32:12.190Z,99863.09
2024-04-24T11:34:42.372Z,99857.25
2024-04-24T11:37:12.172Z,99868.91
2024-04-24T11:39:41.998Z,99871.00
2024-04-24T11:42:11.841Z,99871.81
2024-04-24T11:44:41.828Z,99882.97
2024-04-24T11:47:11.658Z,99879.22
2024-04-24T11:49:41.555Z,99893.03
2024-04-24T11:52:14.518Z,99882.34
2024-04-24T11:54:47.419Z,99889.84
2024-04-24T11:57:19.318Z,99896.38
2024-04-24T11:59:50.399Z,99900.72
2024-04-24T12:02:20.998Z,99909.00
2024-04-24T12:04:51.036Z,99905.81
2024-04-24T12:07:20.976Z,99911.19
2024-04-24T12:09:50.762Z,99922.81
2024-04-24T12:12:20.559Z,99917.06
2024-04-24T12:14:54.370Z,99922.44
2024-04-24T12:17:24.476Z,99932.50
2024-04-24T12:19:54.393Z,99932.22
2024-04-24T12:22:24.787Z,99923.38
2024-04-24T12:24:54.627Z,99925.47
2024-04-24T12:27:24.463Z,99929.75
2024-04-24T12:29:54.320Z,99931.34
2024-04-24T12:32:24.262Z,99930.47
2024-04-24T12:34:54.209Z,99937.63
2024-04-24T12:37:24.069Z,99936.97
2024-04-24T12:39:53.893Z,99938.41
2024-04-24T12:42:23.742Z,99953.94
2024-04-24T12:44:53.574Z,99952.91
2024-04-24T12:49:54.259Z,99959.25
2024-04-24T12:52:24.131Z,99957.81
2024-04-24T12:54:53.939Z,99954.28
2024-04-24T12:57:24.999Z,99954.91
2024-04-24T12:59:54.742Z,99958.63
2024-04-24T13:02:24.560Z,99969.38
2024-04-24T13:04:54.486Z,99960.06
2024-04-24T13:07:24.285Z,99956.41
2024-04-24T13:09:54.087Z,99955.13
2024-04-24T13:12:24.050Z,99956.31
2024-04-24T13:14:53.855Z,99957.81
2024-04-24T13:17:23.785Z,99961.66
2024-04-24T13:19:53.620Z,99964.34
2024-04-24T13:22:23.468Z,99965.38
2024-04-24T13:24:53.323Z,99967.22
2024-04-24T13:27:25.785Z,99963.31
2024-04-24T13:29:55.599Z,99962.69
2024-04-24T13:32:25.529Z,99970.75
2024-04-24T13:34:55.425Z,99961.25
2024-04-24T13:37:25.199Z,99962.94
2024-04-24T13:39:54.983Z,99959.34
2024-04-24T13:42:24.839Z,99957.47
2024-04-24T13:44:55.926Z,99951.41
2024-04-24T13:47:26.609Z,99961.78
2024-04-24T13:49:56.531Z,99963.94
2024-04-24T13:52:26.476Z,99959.75
2024-04-24T13:54:56.313Z,99968.69
2024-04-24T13:57:26.210Z,99967.97
2024-04-24T13:59:56.058Z,99975.97
2024-04-24T14:02:25.924Z,99980.44
2024-04-24T14:04:55.848Z,99972.22
2024-04-24T14:07:25.734Z,99973.84
2024-04-24T14:09:55.497Z,99976.78
2024-04-24T14:12:25.829Z,99973.19
2024-04-24T14:14:56.099Z,99976.28
2024-04-24T14:17:26.200Z,99984.25
2024-04-24T14:19:57.434Z,99985.41
2024-04-24T14:22:27.355Z,99987.97
2024-04-24T14:24:57.148Z,99983.75
2024-04-24T14:27:27.929Z,99983.50
2024-04-24T14:29:57.691Z,99986.66
2024-04-24T14:32:27.605Z,99993.47
2024-04-24T14:34:57.518Z,100000.06
2024-04-24T14:37:27.366Z,99999.91
2024-04-24T14:39:57.174Z,99996.97
2024-04-24T14:42:27.010Z,100001.41
2024-04-24T14:44:56.777Z,99999.25
2024-04-24T14:47:27.075Z,100007.97
2024-04-24T14:49:57.075Z,100005.69
2024-04-24T14:52:26.898Z,100016.19
2024-04-24T14:54:56.685Z,100015.66
2024-04-24T14:57:26.470Z,100029.72
2024-04-24T14:59:56.263Z,100021.03
2024-04-24T15:02:29.779Z,100028.44
2024-04-24T15:05:00.232Z,100027.97
2024-04-24T15:07:30.087Z,100031.84
2024-04-24T15:09:59.964Z,100032.28
2024-04-24T15:12:29.807Z,100039.63
2024-04-24T15:14:59.668Z,100037.47
2024-04-24T15:17:29.823Z,100040.25
2024-04-24T15:19:59.912Z,100047.75
2024-04-24T15:22:29.738Z,100040.47
2024-04-24T15:24:59.503Z,100043.91
2024-04-24T15:27:29.294Z,100052.59
2024-04-24T15:29:59.076Z,100046.88
2024-04-24T15:32:29.378Z,100056.00
2024-04-24T15:34:59.544Z,100051.41
2024-04-24T15:37:29.386Z,100053.94
2024-04-24T15:39:59.206Z,100059.53
2024-04-24T15:42:28.932Z,100059.31
2024-04-24T15:44:58.767Z,100054.25
2024-04-24T15:47:28.631Z,100058.06
2024-04-24T15:49:58.546Z,100059.06
2024-04-24T15:52:28.402Z,100071.50
2024-04-24T15:54:58.172Z,100069.63
2024-04-24T15:57:27.981Z,100064.38
2024-04-24T15:59:57.925Z,100068.41
2024-04-24T16:02:27.913Z,100070.81
2024-04-24T16:04:57.891Z,100066.03
2024-04-24T16:07:28.332Z,100062.31
2024-04-24T16:10:00.877Z,100062.78
2024-04-24T16:12:31.428Z,100058.44
2024-04-24T16:15:01.447Z,100059.38
2024-04-24T16:17:31.392Z,100069.75
2024-04-24T16:20:01.479Z,100057.78
2024-04-24T16:22:31.304Z,100059.38
2024-04-24T16:25:01.046Z,100060.31
2024-04-24T16:27:30.835Z,100056.03
2024-04-24T16:30:01.212Z,100044.84
2024-04-24T16:32:31.173Z,100048.00
2024-04-24T16:35:01.145Z,100040.31
2024-04-24T16:37:31.672Z,100042.63
2024-04-24T16:40:01.501Z,100040.00
2024-04-24T16:42:31.317Z,100046.41
2024-04-24T16:45:01.043Z,100038.34
2024-04-24T16:47:30.892Z,100038.53
2024-04-24T16:50:00.908Z,100034.78
2024-04-24T16:52:30.730Z,100034.50
2024-04-24T16:55:00.616Z,100029.41
2024-04-24T16:57:31.699Z,100033.69
2024-04-24T17:00:02.643Z,100036.34
2024-04-24T17:02:32.671Z,100027.91
2024-04-24T17:05:02.613Z,100033.59
2024-04-24T17:07:36.756Z,100035.75
2024-04-24T17:10:06.782Z,100036.44
2024-04-24T17:12:36.791Z,100032.09
2024-04-24T17:15:06.784Z,100037.44
2024-04-24T17:17:36.978Z,100042.28
2024-04-24T17:20:07.505Z,100051.69
2024-04-24T17:22:37.388Z,100052.00
2024-04-24T17:25:07.435Z,100051.44
2024-04-24T17:27:37.206Z,100053.41
2024-04-24T17:30:09.315Z,100056.88
2024-04-24T17:32:39.143Z,100051.53
2024-04-24T17:35:09.304Z,100058.84
2024-04-24T17:37:39.118Z,100056.34
2024-04-24T17:40:09.444Z,100065.03
2024-04-24T17:42:39.201Z,100067.84
2024-04-24T17:45:09.426Z,100068.09
2024-04-24T17:47:39.356Z,100075.59
2024-04-24T17:50:09.959Z,100076.53
2024-04-24T17:52:39.760Z,100086.69
2024-04-24T17:55:09.836Z,100094.84
2024-04-24T17:57:39.625Z,100081.69
2024-04-24T18:00:10.041Z,100085.88
2024-04-24T18:02:39.836Z,100093.38
2024-04-24T18:05:10.400Z,100086.06
2024-04-24T18:07:40.461Z,100090.50
2024-04-24T18:10:10.407Z,100094.84
2024-04-24T18:12:41.381Z,100087.38
2024-04-24T18:15:11.285Z,100085.41
2024-04-24T18:17:41.187Z,100090.69
2024-04-24T18:20:11.513Z,100097.53
2024-04-24T18:22:41.289Z,100088.19
2024-04-24T18:25:11.122Z,100091.25
2024-04-24T18:27:43.434Z,100084.97
2024-04-24T18:30:14.514Z,100087.56
2024-04-24T18:32:44.472Z,100093.59
2024-04-24T18:35:14.539Z,100091.72
2024-04-24T18:37:44.326Z,100092.44
2024-04-24T18:40:14.781Z,100092.09
2024-04-24T18:42:44.743Z,100095.25
2024-04-24T18:45:15.118Z,100102.72
2024-04-24T18:47:45.198Z,100093.66
2024-04-24T18:50:15.205Z,100098.47
2024-04-24T18:52:45.157Z,100102.00
2024-04-24T18:55:15.003Z,100103.78
2024-04-24T18:57:47.582Z,100091.34
2024-04-24T19:00:20.771Z,100085.69
2024-04-24T19:02:51.366Z,100090.50
2024-04-24T19:09:02.608Z,100096.91
2024-04-24T19:11:32.453Z,100095.03
2024-04-24T19:14:02.368Z,100088.84
2024-04-24T19:16:32.142Z,100094.50
2024-04-24T19:19:01.934Z,100093.59
2024-04-24T19:21:31.721Z,100096.06
2024-04-24T19:24:04.500Z,100098.13
2024-04-24T19:26:34.330Z,100107.09
2024-04-24T19:29:04.198Z,100106.63
2024-04-24T19:31:34.199Z,100101.53
2024-04-24T19:34:04.096Z,100092.38
2024-04-24T19:36:33.954Z,100092.00
2024-04-24T19:39:03.806Z,100089.13
2024-04-24T19:41:33.623Z,100091.00
2024-04-24T19:44:05.992Z,100091.91
2024-04-24T19:46:37.476Z,100094.78
2024-04-24T19:49:07.323Z,100096.34
2024-04-24T19:51:39.791Z,100097.75
2024-04-24T19:54:09.637Z,100092.91
2024-04-24T19:56:40.009Z,100092.66
2024-04-24T19:59:10.089Z,100096.63
2024-04-24T20:01:41.338Z,100089.88
2024-04-24T20:04:11.325Z,100096.16
2024-04-24T20:06:41.193Z,100095.50
2024-04-24T20:09:11.604Z,100094.13
2024-04-24T20:11:41.597Z,100088.84
2024-04-24T20:14:11.441Z,100093.47
2024-04-24T20:16:41.307Z,100094.22
2024-04-24T20:19:11.299Z,100104.22
2024-04-24T20:21:41.107Z,100107.66
2024-04-24T20:24:11.616Z,100107.56
2024-04-24T20:26:41.514Z,100104.41
2024-04-24T20:29:11.471Z,100117.63
2024-04-24T20:31:41.271Z,100112.09
2024-04-24T20:34:11.374Z,100122.34
2024-04-24T20:36:41.245Z,100120.03
2024-04-24T20:39:13.935Z,100119.41
2024-04-24T20:41:47.486Z,100121.88
2024-04-24T20:44:17.244Z,100123.56
2024-04-24T20:46:47.201Z,100126.63
2024-04-24T20:49:17.433Z,100128.47
2024-04-24T20:51:47.157Z,100128.09
2024-04-24T20:54:17.179Z,100125.13
2024-04-24T20:56:47.016Z,100127.06
2024-04-24T20:59:16.843Z,100126.69
2024-04-24T21:01:46.644Z,100128.75
2024-04-24T21:04:16.577Z,100126.69
2024-04-24T21:06:46.404Z,100130.06
2024-04-24T21:09:16.883Z,100128.38
2024-04-24T21:11:46.884Z,100133.38
2024-04-24T21:14:16.697Z,100128.56
2024-04-24T21:16:46.557Z,100134.56
2024-04-24T21:19:16.467Z,100144.09
2024-04-24T21:21:49.629Z,100142.53
2024-04-24T21:24:19.999Z,100141.78
2024-04-24T21:26:50.466Z,100143.34
2024-04-24T21:29:20.415Z,100138.66
2024-04-24T21:31:50.696Z,100130.22
2024-04-24T21:34:20.509Z,100125.88
2024-04-24T21:36:50.273Z,100124.22
2024-04-24T21:39:20.110Z,100120.41
2024-04-24T21:41:50.026Z,100116.25
2024-04-24T21:44:19.889Z,100119.69
2024-04-24T21:46:49.730Z,100121.41
2024-04-24T21:49:19.552Z,100119.88
2024-04-24T21:51:49.281Z,100119.59
2024-04-24T21:54:19.096Z,100124.22
2024-04-24T21:56:48.907Z,100122.25
2024-04-24T21:59:18.962Z,100127.19
2024-04-24T22:01:49.907Z,100124.22
2024-04-24T22:04:19.692Z,100124.28
2024-04-24T22:06:49.500Z,100120.56
2024-04-24T22:09:19.298Z,100127.25
2024-04-24T22:11:50.638Z,100127.91
2024-04-24T22:14:20.552Z,100134.66
2024-04-24T22:16:51.077Z,100147.16
2024-04-24T22:19:21.099Z,100143.81
2024-04-24T22:21:50.944Z,100144.66
2024-04-24T22:24:21.788Z,100134.94
2024-04-24T22:26:51.638Z,100146.34
2024-04-24T22:29:21.496Z,100137.16
2024-04-24T22:31:51.815Z,100141.91
2024-04-24T22:34:21.645Z,100149.75
2024-04-24T22:36:51.473Z,100154.22
2024-04-24T22:39:21.272Z,100144.78
2024-04-24T22:41:51.023Z,100147.94
2024-04-24T22:44:20.889Z,100147.88
2024-04-24T22:46:50.739Z,100153.72
2024-04-24T22:49:20.592Z,100167.63
2024-04-24T22:51:50.448Z,100165.03
2024-04-24T22:54:23.267Z,100168.34
2024-04-24T22:56:54.227Z,100167.91
2024-04-24T22:59:25.111Z,100170.31
2024-04-24T23:01:58.373Z,100172.59
2024-04-24T23:04:29.876Z,100173.28
2024-04-24T23:06:59.759Z,100187.06
2024-04-24T23:09:29.653Z,100193.72
2024-04-24T23:11:59.836Z,100204.91
2024-04-24T23:14:30.255Z,100219.91
2024-04-24T23:17:00.155Z,100222.88
2024-04-24T23:19:30.124Z,100220.84
2024-04-24T23:21:59.936Z,100223.63
2024-04-24T23:24:29.851Z,100224.25
2024-04-24T23:27:00.024Z,100221.56
2024-04-24T23:29:30.154Z,100222.22
2024-04-24T23:32:00.299Z,100227.53
2024-04-24T23:34:30.169Z,100229.22
2024-04-24T23:37:00.046Z,100231.06
2024-04-24T23:39:29.810Z,100218.63
2024-04-24T23:42:02.778Z,100223.72
2024-04-24T23:44:32.656Z,100227.06
2024-04-24T23:47:02.840Z,100218.34
2024-04-24T23:49:33.855Z,100224.16
2024-04-24T23:52:03.746Z,100220.03
2024-04-24T23:54:33.541Z,100218.59
2024-04-24T23:57:05.507Z,100215.91
2024-04-24T23:59:35.717Z,100216.13
